<?xml version='1.0' encoding='UTF-8'?><gpx version="1.1" creator="JPX - https://github.com/jenetics/jpx" xmlns="http://www.topografix.com/GPX/1/1"><trk><trkseg><trkpt lat="39.8122638" lon="-0.2722343"><ele>290.0</ele><time>2026-04-16T16:31:48.357Z</time></trkpt><trkpt lat="39.8121644" lon="-0.2723074"><ele>290.0</ele><time>2026-04-16T16:31:52.307Z</time></trkpt><trkpt lat="39.812125" lon="-0.2721989"><ele>290.0</ele><time>2026-04-16T16:32:01.376Z</time></trkpt><trkpt lat="39.8121228" lon="-0.2721101"><ele>290.0</ele><time>2026-04-16T16:32:06.351Z</time></trkpt><trkpt lat="39.8121794" lon="-0.2721666"><ele>290.0</ele><time>2026-04-16T16:32:11.297Z</time></trkpt><trkpt lat="39.8122435" lon="-0.2721442"><ele>290.0</ele><time>2026-04-16T16:32:28.184Z</time></trkpt><trkpt lat="39.8122628" lon="-0.2720629"><ele>290.0</ele><time>2026-04-16T16:32:39.173Z</time></trkpt><trkpt lat="39.8122759" lon="-0.2719799"><ele>290.0</ele><time>2026-04-16T16:32:50.236Z</time></trkpt><trkpt lat="39.8122779" lon="-0.2718344"><ele>290.0</ele><time>2026-04-16T16:33:37.214Z</time></trkpt><trkpt lat="39.8123269" lon="-0.2717785"><ele>290.0</ele><time>2026-04-16T16:33:43.228Z</time></trkpt><trkpt lat="39.8123935" lon="-0.2717926"><ele>290.0</ele><time>2026-04-16T16:34:08.241Z</time></trkpt><trkpt lat="39.812434" lon="-0.2717193"><ele>290.0</ele><time>2026-04-16T16:34:18.159Z</time></trkpt><trkpt lat="39.8124311" lon="-0.2716268"><ele>290.0</ele><time>2026-04-16T16:34:27.239Z</time></trkpt><trkpt lat="39.8124159" lon="-0.271546"><ele>290.0</ele><time>2026-04-16T16:34:34.243Z</time></trkpt><trkpt lat="39.8124422" lon="-0.2714715"><ele>290.0</ele><time>2026-04-16T16:34:46.202Z</time></trkpt><trkpt lat="39.8124648" lon="-0.2713942"><ele>290.0</ele><time>2026-04-16T16:35:00.244Z</time></trkpt><trkpt lat="39.812501" lon="-0.2713264"><ele>290.0</ele><time>2026-04-16T16:35:06.174Z</time></trkpt><trkpt lat="39.8125338" lon="-0.2712505"><ele>290.0</ele><time>2026-04-16T16:35:12.203Z</time></trkpt><trkpt lat="39.8125673" lon="-0.2711763"><ele>290.0</ele><time>2026-04-16T16:35:19.224Z</time></trkpt><trkpt lat="39.812606" lon="-0.2711011"><ele>289.42857142857144</ele><time>2026-04-16T16:35:27.233Z</time></trkpt><trkpt lat="39.8126604" lon="-0.2710483"><ele>288.8571428571429</ele><time>2026-04-16T16:35:35.241Z</time></trkpt><trkpt lat="39.8126967" lon="-0.2709653"><ele>288.2857142857143</ele><time>2026-04-16T16:35:42.173Z</time></trkpt><trkpt lat="39.8127328" lon="-0.2708925"><ele>287.7142857142857</ele><time>2026-04-16T16:35:49.174Z</time></trkpt><trkpt lat="39.8127536" lon="-0.2708126"><ele>287.1428571428571</ele><time>2026-04-16T16:35:57.183Z</time></trkpt><trkpt lat="39.8127754" lon="-0.2707302"><ele>286.57142857142856</ele><time>2026-04-16T16:36:05.192Z</time></trkpt><trkpt lat="39.812785" lon="-0.2706453"><ele>286.0</ele><time>2026-04-16T16:36:17.173Z</time></trkpt><trkpt lat="39.8128345" lon="-0.2705223"><ele>282.57142857142856</ele><time>2026-04-16T16:36:50.261Z</time></trkpt><trkpt lat="39.8128715" lon="-0.2704507"><ele>279.1428571428571</ele><time>2026-04-16T16:36:56.206Z</time></trkpt><trkpt lat="39.8128828" lon="-0.270369"><ele>275.7142857142857</ele><time>2026-04-16T16:37:04.215Z</time></trkpt><trkpt lat="39.8128645" lon="-0.2702864"><ele>272.2857142857143</ele><time>2026-04-16T16:37:11.237Z</time></trkpt><trkpt lat="39.8128884" lon="-0.2702006"><ele>268.8571428571429</ele><time>2026-04-16T16:37:23.194Z</time></trkpt><trkpt lat="39.8129238" lon="-0.270126"><ele>265.42857142857144</ele><time>2026-04-16T16:37:29.228Z</time></trkpt><trkpt lat="39.8129438" lon="-0.2700445"><ele>262.0</ele><time>2026-04-16T16:37:35.173Z</time></trkpt><trkpt lat="39.8129592" lon="-0.2699604"><ele>262.0</ele><time>2026-04-16T16:37:42.174Z</time></trkpt><trkpt lat="39.8129426" lon="-0.2698606"><ele>262.0</ele><time>2026-04-16T16:37:49.195Z</time></trkpt><trkpt lat="39.8129548" lon="-0.2697602"><ele>262.0</ele><time>2026-04-16T16:37:53.157Z</time></trkpt><trkpt lat="39.8129927" lon="-0.2696882"><ele>262.0</ele><time>2026-04-16T16:37:57.256Z</time></trkpt><trkpt lat="39.8130404" lon="-0.2697556"><ele>262.0</ele><time>2026-04-16T16:38:07.187Z</time></trkpt><trkpt lat="39.8131072" lon="-0.2697173"><ele>262.0</ele><time>2026-04-16T16:38:12.235Z</time></trkpt><trkpt lat="39.8131719" lon="-0.2696444"><ele>260.42857142857144</ele><time>2026-04-16T16:38:25.181Z</time></trkpt><trkpt lat="39.8132093" lon="-0.2695696"><ele>258.8571428571429</ele><time>2026-04-16T16:38:30.227Z</time></trkpt><trkpt lat="39.8132613" lon="-0.269518"><ele>257.2857142857143</ele><time>2026-04-16T16:38:36.174Z</time></trkpt><trkpt lat="39.8132865" lon="-0.2694318"><ele>255.71428571428572</ele><time>2026-04-16T16:38:43.174Z</time></trkpt><trkpt lat="39.8133291" lon="-0.2693699"><ele>254.14285714285714</ele><time>2026-04-16T16:38:49.219Z</time></trkpt><trkpt lat="39.8133408" lon="-0.269277"><ele>252.57142857142856</ele><time>2026-04-16T16:39:02.173Z</time></trkpt><trkpt lat="39.8133642" lon="-0.2691893"><ele>250.99999999999997</ele><time>2026-04-16T16:39:08.186Z</time></trkpt><trkpt lat="39.8133816" lon="-0.2690941"><ele>250.99999999999997</ele><time>2026-04-16T16:39:14.138Z</time></trkpt><trkpt lat="39.8133842" lon="-0.2690117"><ele>251.0</ele><time>2026-04-16T16:39:19.173Z</time></trkpt><trkpt lat="39.8134158" lon="-0.2689173"><ele>250.99999999999997</ele><time>2026-04-16T16:39:24.205Z</time></trkpt><trkpt lat="39.8134544" lon="-0.2688482"><ele>250.99999999999997</ele><time>2026-04-16T16:39:30.24Z</time></trkpt><trkpt lat="39.8134879" lon="-0.2687785"><ele>251.0</ele><time>2026-04-16T16:39:39.214Z</time></trkpt><trkpt lat="39.8135421" lon="-0.2687096"><ele>250.99999999999997</ele><time>2026-04-16T16:39:43.186Z</time></trkpt><trkpt lat="39.8135942" lon="-0.2686491"><ele>250.99999999999997</ele><time>2026-04-16T16:39:47.258Z</time></trkpt><trkpt lat="39.8136505" lon="-0.2685924"><ele>251.71428571428567</ele><time>2026-04-16T16:39:53.173Z</time></trkpt><trkpt lat="39.8136999" lon="-0.2685338"><ele>252.42857142857142</ele><time>2026-04-16T16:39:59.204Z</time></trkpt><trkpt lat="39.8137658" lon="-0.2684969"><ele>253.1428571428571</ele><time>2026-04-16T16:40:05.26Z</time></trkpt><trkpt lat="39.8138243" lon="-0.2684654"><ele>253.85714285714283</ele><time>2026-04-16T16:40:10.161Z</time></trkpt><trkpt lat="39.8138416" lon="-0.2683788"><ele>254.57142857142856</ele><time>2026-04-16T16:40:28.173Z</time></trkpt><trkpt lat="39.8139028" lon="-0.2684122"><ele>255.28571428571428</ele><time>2026-04-16T16:40:36.176Z</time></trkpt><trkpt lat="39.81391" lon="-0.2684947"><ele>256.0</ele><time>2026-04-16T16:40:40.236Z</time></trkpt><trkpt lat="39.8138858" lon="-0.2685905"><ele>255.99999999999997</ele><time>2026-04-16T16:40:45.139Z</time></trkpt><trkpt lat="39.8139124" lon="-0.268706"><ele>256.0</ele><time>2026-04-16T16:40:54.137Z</time></trkpt><trkpt lat="39.8139403" lon="-0.26879"><ele>256.0</ele><time>2026-04-16T16:40:57.241Z</time></trkpt><trkpt lat="39.8139449" lon="-0.2688759"><ele>256.0</ele><time>2026-04-16T16:41:00.203Z</time></trkpt><trkpt lat="39.8139275" lon="-0.2689708"><ele>255.99999999999997</ele><time>2026-04-16T16:41:04.174Z</time></trkpt><trkpt lat="39.8139029" lon="-0.2690498"><ele>256.0</ele><time>2026-04-16T16:41:09.2Z</time></trkpt><trkpt lat="39.8138978" lon="-0.2691732"><ele>257.5</ele><time>2026-04-16T16:41:39.157Z</time></trkpt><trkpt lat="39.8138611" lon="-0.2692864"><ele>259.0</ele><time>2026-04-16T16:41:41.039Z</time></trkpt><trkpt lat="39.8138697" lon="-0.2693725"><ele>260.5</ele><time>2026-04-16T16:41:48.256Z</time></trkpt><trkpt lat="39.813884" lon="-0.2694557"><ele>262.0</ele><time>2026-04-16T16:42:29.178Z</time></trkpt><trkpt lat="39.8139452" lon="-0.2695751"><ele>263.5</ele><time>2026-04-16T16:42:59.239Z</time></trkpt><trkpt lat="39.8140146" lon="-0.269665"><ele>265.0</ele><time>2026-04-16T16:43:08.235Z</time></trkpt><trkpt lat="39.8140546" lon="-0.2697454"><ele>266.99999999999994</ele><time>2026-04-16T16:43:12.185Z</time></trkpt><trkpt lat="39.8141072" lon="-0.2697984"><ele>269.0</ele><time>2026-04-16T16:43:23.173Z</time></trkpt><trkpt lat="39.8141735" lon="-0.2698294"><ele>271.0</ele><time>2026-04-16T16:43:32.174Z</time></trkpt><trkpt lat="39.8142329" lon="-0.2698609"><ele>273.0</ele><time>2026-04-16T16:43:38.185Z</time></trkpt><trkpt lat="39.8142937" lon="-0.2698881"><ele>275.0</ele><time>2026-04-16T16:43:49.12Z</time></trkpt><trkpt lat="39.8143564" lon="-0.2698793"><ele>276.99999999999994</ele><time>2026-04-16T16:43:59.157Z</time></trkpt><trkpt lat="39.8144212" lon="-0.2698834"><ele>279.0</ele><time>2026-04-16T16:44:06.222Z</time></trkpt><trkpt lat="39.8144815" lon="-0.269859"><ele>280.71428571428567</ele><time>2026-04-16T16:44:20.236Z</time></trkpt><trkpt lat="39.8144658" lon="-0.2697754"><ele>282.42857142857144</ele><time>2026-04-16T16:44:26.238Z</time></trkpt><trkpt lat="39.8144261" lon="-0.2697075"><ele>284.1428571428571</ele><time>2026-04-16T16:44:34.247Z</time></trkpt><trkpt lat="39.8143996" lon="-0.2696306"><ele>285.85714285714283</ele><time>2026-04-16T16:44:43.173Z</time></trkpt><trkpt lat="39.8144658" lon="-0.2696248"><ele>287.57142857142856</ele><time>2026-04-16T16:45:10.232Z</time></trkpt><trkpt lat="39.8145319" lon="-0.2696408"><ele>289.2857142857143</ele><time>2026-04-16T16:45:22.19Z</time></trkpt><trkpt lat="39.8146029" lon="-0.2696462"><ele>291.0</ele><time>2026-04-16T16:45:29.211Z</time></trkpt><trkpt lat="39.8146669" lon="-0.2696586"><ele>291.0</ele><time>2026-04-16T16:45:41.173Z</time></trkpt><trkpt lat="39.8147305" lon="-0.2696523"><ele>291.0</ele><time>2026-04-16T16:46:11.231Z</time></trkpt><trkpt lat="39.8147953" lon="-0.2696413"><ele>291.0</ele><time>2026-04-16T16:48:28.277Z</time></trkpt><trkpt lat="39.8148582" lon="-0.2696555"><ele>291.0</ele><time>2026-04-16T16:48:35.189Z</time></trkpt><trkpt lat="39.8149309" lon="-0.2696548"><ele>291.0</ele><time>2026-04-16T16:49:36.196Z</time></trkpt><trkpt lat="39.8150069" lon="-0.2696536"><ele>291.0</ele><time>2026-04-16T16:49:41.173Z</time></trkpt><trkpt lat="39.81507" lon="-0.2696326"><ele>291.0</ele><time>2026-04-16T16:49:52.835Z</time></trkpt><trkpt lat="39.8151352" lon="-0.2696514"><ele>292.1428571428571</ele><time>2026-04-16T16:50:03.14Z</time></trkpt><trkpt lat="39.8152091" lon="-0.2696736"><ele>293.2857142857143</ele><time>2026-04-16T16:50:07.219Z</time></trkpt><trkpt lat="39.8152688" lon="-0.2697119"><ele>294.42857142857144</ele><time>2026-04-16T16:50:14.219Z</time></trkpt><trkpt lat="39.8153258" lon="-0.269755"><ele>295.57142857142856</ele><time>2026-04-16T16:50:19.259Z</time></trkpt><trkpt lat="39.8153925" lon="-0.2697834"><ele>296.7142857142857</ele><time>2026-04-16T16:50:27.217Z</time></trkpt><trkpt lat="39.8154616" lon="-0.269817"><ele>297.85714285714283</ele><time>2026-04-16T16:50:35.226Z</time></trkpt><trkpt lat="39.8155298" lon="-0.2698305"><ele>299.0</ele><time>2026-04-16T16:50:42.257Z</time></trkpt><trkpt lat="39.8155696" lon="-0.2699044"><ele>299.0</ele><time>2026-04-16T16:50:48.173Z</time></trkpt><trkpt lat="39.8156339" lon="-0.2699382"><ele>299.0</ele><time>2026-04-16T16:50:55.159Z</time></trkpt><trkpt lat="39.8156997" lon="-0.2699277"><ele>299.0</ele><time>2026-04-16T16:51:03.206Z</time></trkpt><trkpt lat="39.8157734" lon="-0.2699096"><ele>299.0</ele><time>2026-04-16T16:51:09.24Z</time></trkpt><trkpt lat="39.8158447" lon="-0.269898"><ele>299.0</ele><time>2026-04-16T16:51:15.173Z</time></trkpt><trkpt lat="39.8159085" lon="-0.2698924"><ele>299.0</ele><time>2026-04-16T16:51:21.199Z</time></trkpt><trkpt lat="39.8159744" lon="-0.2699165"><ele>299.0</ele><time>2026-04-16T16:51:28.221Z</time></trkpt><trkpt lat="39.8160403" lon="-0.2699314"><ele>301.57142857142856</ele><time>2026-04-16T16:51:35.222Z</time></trkpt><trkpt lat="39.8161239" lon="-0.2699716"><ele>304.14285714285717</ele><time>2026-04-16T16:51:45.1Z</time></trkpt><trkpt lat="39.8161777" lon="-0.2700158"><ele>306.7142857142857</ele><time>2026-04-16T16:51:50.173Z</time></trkpt><trkpt lat="39.8162283" lon="-0.2700671"><ele>309.2857142857143</ele><time>2026-04-16T16:51:55.158Z</time></trkpt><trkpt lat="39.8162941" lon="-0.2701039"><ele>311.85714285714283</ele><time>2026-04-16T16:52:02.16Z</time></trkpt><trkpt lat="39.8163522" lon="-0.2701576"><ele>314.42857142857144</ele><time>2026-04-16T16:52:11.229Z</time></trkpt><trkpt lat="39.8164056" lon="-0.2702068"><ele>317.0</ele><time>2026-04-16T16:52:17.173Z</time></trkpt><trkpt lat="39.8164737" lon="-0.2702213"><ele>317.0</ele><time>2026-04-16T16:52:25.1Z</time></trkpt><trkpt lat="39.8165413" lon="-0.2702154"><ele>317.0</ele><time>2026-04-16T16:52:34.218Z</time></trkpt><trkpt lat="39.8166036" lon="-0.2702427"><ele>317.0</ele><time>2026-04-16T16:52:42.173Z</time></trkpt><trkpt lat="39.816666" lon="-0.2702688"><ele>317.0</ele><time>2026-04-16T16:52:49.188Z</time></trkpt><trkpt lat="39.8167338" lon="-0.270267"><ele>317.0</ele><time>2026-04-16T16:52:56.237Z</time></trkpt><trkpt lat="39.8168031" lon="-0.2702481"><ele>317.0</ele><time>2026-04-16T16:53:04.22Z</time></trkpt><trkpt lat="39.8168695" lon="-0.2702415"><ele>317.0</ele><time>2026-04-16T16:53:11.241Z</time></trkpt><trkpt lat="39.8169365" lon="-0.2702286"><ele>319.8571428571429</ele><time>2026-04-16T16:53:21.225Z</time></trkpt><trkpt lat="39.817001" lon="-0.2702397"><ele>322.7142857142857</ele><time>2026-04-16T16:53:29.233Z</time></trkpt><trkpt lat="39.8170636" lon="-0.2702635"><ele>325.57142857142856</ele><time>2026-04-16T16:53:38.229Z</time></trkpt><trkpt lat="39.8171266" lon="-0.2702498"><ele>328.42857142857144</ele><time>2026-04-16T16:53:46.238Z</time></trkpt><trkpt lat="39.8171923" lon="-0.2702464"><ele>331.2857142857143</ele><time>2026-04-16T16:53:58.196Z</time></trkpt><trkpt lat="39.8172552" lon="-0.270273"><ele>334.14285714285717</ele><time>2026-04-16T16:54:06.278Z</time></trkpt><trkpt lat="39.8173125" lon="-0.2703078"><ele>337.0</ele><time>2026-04-16T16:54:14.213Z</time></trkpt><trkpt lat="39.8173594" lon="-0.270246"><ele>337.00000000000006</ele><time>2026-04-16T16:54:28.173Z</time></trkpt><trkpt lat="39.8174281" lon="-0.2702455"><ele>337.0</ele><time>2026-04-16T16:54:48.224Z</time></trkpt><trkpt lat="39.8174933" lon="-0.2702306"><ele>337.0</ele><time>2026-04-16T16:55:03.254Z</time></trkpt><trkpt lat="39.8175672" lon="-0.2702304"><ele>337.0</ele><time>2026-04-16T16:55:18.174Z</time></trkpt><trkpt lat="39.8176225" lon="-0.2701882"><ele>337.0</ele><time>2026-04-16T16:55:31.23Z</time></trkpt><trkpt lat="39.8176547" lon="-0.2701131"><ele>337.00000000000006</ele><time>2026-04-16T16:55:46.174Z</time></trkpt><trkpt lat="39.817739" lon="-0.2701267"><ele>337.0</ele><time>2026-04-16T16:56:07.215Z</time></trkpt><trkpt lat="39.8177964" lon="-0.270078"><ele>340.8571428571429</ele><time>2026-04-16T16:56:15.224Z</time></trkpt><trkpt lat="39.817862" lon="-0.2700819"><ele>344.7142857142857</ele><time>2026-04-16T16:56:26.217Z</time></trkpt><trkpt lat="39.817849" lon="-0.2699974"><ele>348.57142857142856</ele><time>2026-04-16T16:56:38.173Z</time></trkpt><trkpt lat="39.8179168" lon="-0.2700116"><ele>352.42857142857144</ele><time>2026-04-16T16:56:52.196Z</time></trkpt><trkpt lat="39.8179602" lon="-0.2699499"><ele>356.2857142857143</ele><time>2026-04-16T16:57:05.14Z</time></trkpt><trkpt lat="39.8179819" lon="-0.2698687"><ele>360.14285714285717</ele><time>2026-04-16T16:57:16.222Z</time></trkpt><trkpt lat="39.8179537" lon="-0.2697916"><ele>364.0</ele><time>2026-04-16T16:57:23.243Z</time></trkpt><trkpt lat="39.8179352" lon="-0.2697062"><ele>366.0</ele><time>2026-04-16T16:57:30.173Z</time></trkpt><trkpt lat="39.8179234" lon="-0.2695997"><ele>368.0</ele><time>2026-04-16T16:57:52.206Z</time></trkpt><trkpt lat="39.8178961" lon="-0.2695096"><ele>370.0</ele><time>2026-04-16T16:57:58.241Z</time></trkpt><trkpt lat="39.8178561" lon="-0.269431"><ele>372.0</ele><time>2026-04-16T16:58:04.083Z</time></trkpt><trkpt lat="39.8178272" lon="-0.2693561"><ele>374.0</ele><time>2026-04-16T16:58:11.186Z</time></trkpt><trkpt lat="39.8178301" lon="-0.2692643"><ele>376.0</ele><time>2026-04-16T16:58:16.233Z</time></trkpt><trkpt lat="39.8177994" lon="-0.2691743"><ele>378.0</ele><time>2026-04-16T16:58:21.236Z</time></trkpt><trkpt lat="39.8177518" lon="-0.2691097"><ele>378.0</ele><time>2026-04-16T16:58:27.256Z</time></trkpt><trkpt lat="39.8177" lon="-0.2690575"><ele>378.0</ele><time>2026-04-16T16:58:34.059Z</time></trkpt><trkpt lat="39.817641" lon="-0.2690023"><ele>378.0</ele><time>2026-04-16T16:58:39.173Z</time></trkpt><trkpt lat="39.8175968" lon="-0.2689385"><ele>378.0</ele><time>2026-04-16T16:58:48.174Z</time></trkpt><trkpt lat="39.817572" lon="-0.2688618"><ele>378.0</ele><time>2026-04-16T16:58:56.173Z</time></trkpt><trkpt lat="39.8175891" lon="-0.2687776"><ele>378.0</ele><time>2026-04-16T16:59:08.236Z</time></trkpt><trkpt lat="39.8176256" lon="-0.2687093"><ele>378.0</ele><time>2026-04-16T16:59:18.22Z</time></trkpt><trkpt lat="39.8176803" lon="-0.2686563"><ele>379.2857142857143</ele><time>2026-04-16T16:59:26.23Z</time></trkpt><trkpt lat="39.8177456" lon="-0.2686259"><ele>380.57142857142856</ele><time>2026-04-16T16:59:35.226Z</time></trkpt><trkpt lat="39.8178082" lon="-0.2685948"><ele>381.8571428571429</ele><time>2026-04-16T16:59:42.247Z</time></trkpt><trkpt lat="39.8178682" lon="-0.2685688"><ele>383.1428571428571</ele><time>2026-04-16T16:59:49.177Z</time></trkpt><trkpt lat="39.8179333" lon="-0.2685772"><ele>384.42857142857144</ele><time>2026-04-16T16:59:58.173Z</time></trkpt><trkpt lat="39.8179992" lon="-0.268591"><ele>385.7142857142857</ele><time>2026-04-16T17:00:06.174Z</time></trkpt><trkpt lat="39.8180677" lon="-0.268574"><ele>387.0</ele><time>2026-04-16T17:00:16.173Z</time></trkpt><trkpt lat="39.8181223" lon="-0.2685185"><ele>387.0</ele><time>2026-04-16T17:00:23.198Z</time></trkpt><trkpt lat="39.8181884" lon="-0.2684853"><ele>387.0</ele><time>2026-04-16T17:00:29.215Z</time></trkpt><trkpt lat="39.8182473" lon="-0.2685163"><ele>387.0</ele><time>2026-04-16T17:00:39.189Z</time></trkpt><trkpt lat="39.818291" lon="-0.2685759"><ele>387.0</ele><time>2026-04-16T17:00:46.209Z</time></trkpt><trkpt lat="39.8183489" lon="-0.2686138"><ele>387.0</ele><time>2026-04-16T17:00:56.193Z</time></trkpt><trkpt lat="39.8183957" lon="-0.2686732"><ele>387.0</ele><time>2026-04-16T17:01:06.176Z</time></trkpt><trkpt lat="39.8184563" lon="-0.268636"><ele>387.0</ele><time>2026-04-16T17:01:18.245Z</time></trkpt><trkpt lat="39.818471" lon="-0.268556"><ele>387.0</ele><time>2026-04-16T17:01:25.173Z</time></trkpt><trkpt lat="39.8184807" lon="-0.2684654"><ele>387.0</ele><time>2026-04-16T17:01:33.14Z</time></trkpt><trkpt lat="39.818474" lon="-0.2683732"><ele>387.0</ele><time>2026-04-16T17:01:39.199Z</time></trkpt><trkpt lat="39.8184897" lon="-0.2682863"><ele>387.0</ele><time>2026-04-16T17:01:48.196Z</time></trkpt><trkpt lat="39.8184874" lon="-0.2681949"><ele>387.0</ele><time>2026-04-16T17:01:57.193Z</time></trkpt><trkpt lat="39.8184634" lon="-0.268113"><ele>387.0</ele><time>2026-04-16T17:02:03.226Z</time></trkpt><trkpt lat="39.8184465" lon="-0.2680256"><ele>387.0</ele><time>2026-04-16T17:02:09.173Z</time></trkpt><trkpt lat="39.8184166" lon="-0.2679369"><ele>388.14285714285717</ele><time>2026-04-16T17:02:15.289Z</time></trkpt><trkpt lat="39.8183698" lon="-0.2678494"><ele>389.28571428571433</ele><time>2026-04-16T17:02:20.231Z</time></trkpt><trkpt lat="39.8183157" lon="-0.2677848"><ele>390.42857142857144</ele><time>2026-04-16T17:02:24.137Z</time></trkpt><trkpt lat="39.8182834" lon="-0.2677141"><ele>391.57142857142856</ele><time>2026-04-16T17:02:28.24Z</time></trkpt><trkpt lat="39.8182526" lon="-0.2676223"><ele>392.7142857142857</ele><time>2026-04-16T17:02:33.179Z</time></trkpt><trkpt lat="39.8182178" lon="-0.2675386"><ele>393.85714285714283</ele><time>2026-04-16T17:02:38.256Z</time></trkpt><trkpt lat="39.8181918" lon="-0.2674562"><ele>395.0</ele><time>2026-04-16T17:02:43.137Z</time></trkpt><trkpt lat="39.8181575" lon="-0.2673734"><ele>395.0</ele><time>2026-04-16T17:02:49.117Z</time></trkpt><trkpt lat="39.8181155" lon="-0.2673086"><ele>395.0</ele><time>2026-04-16T17:02:54.242Z</time></trkpt><trkpt lat="39.8180906" lon="-0.2672145"><ele>395.0</ele><time>2026-04-16T17:02:59.18Z</time></trkpt><trkpt lat="39.818063" lon="-0.2671256"><ele>395.0</ele><time>2026-04-16T17:03:04.227Z</time></trkpt><trkpt lat="39.8180555" lon="-0.2670345"><ele>395.0</ele><time>2026-04-16T17:03:15.198Z</time></trkpt><trkpt lat="39.8180689" lon="-0.2669406"><ele>395.0</ele><time>2026-04-16T17:03:19.173Z</time></trkpt><trkpt lat="39.8180818" lon="-0.2668535"><ele>395.0</ele><time>2026-04-16T17:03:23.209Z</time></trkpt><trkpt lat="39.8180855" lon="-0.2667619"><ele>395.2857142857143</ele><time>2026-04-16T17:03:27.839Z</time></trkpt><trkpt lat="39.8181024" lon="-0.2666732"><ele>395.5714285714286</ele><time>2026-04-16T17:03:33.141Z</time></trkpt><trkpt lat="39.818146" lon="-0.2666138"><ele>395.8571428571429</ele><time>2026-04-16T17:03:38.241Z</time></trkpt><trkpt lat="39.8181895" lon="-0.2665538"><ele>396.1428571428571</ele><time>2026-04-16T17:03:45.174Z</time></trkpt><trkpt lat="39.8182372" lon="-0.2664793"><ele>396.42857142857144</ele><time>2026-04-16T17:04:08.258Z</time></trkpt><trkpt lat="39.8182771" lon="-0.2664096"><ele>396.7142857142857</ele><time>2026-04-16T17:04:14.096Z</time></trkpt><trkpt lat="39.8183286" lon="-0.2663441"><ele>397.0</ele><time>2026-04-16T17:04:19.879Z</time></trkpt><trkpt lat="39.8183905" lon="-0.2662964"><ele>393.7142857142857</ele><time>2026-04-16T17:04:25.203Z</time></trkpt><trkpt lat="39.8184464" lon="-0.2662392"><ele>390.42857142857144</ele><time>2026-04-16T17:04:30.25Z</time></trkpt><trkpt lat="39.8185231" lon="-0.2662142"><ele>387.1428571428571</ele><time>2026-04-16T17:04:35.14Z</time></trkpt><trkpt lat="39.8185949" lon="-0.2661866"><ele>383.8571428571429</ele><time>2026-04-16T17:04:40.235Z</time></trkpt><trkpt lat="39.8186595" lon="-0.2661456"><ele>380.5714285714286</ele><time>2026-04-16T17:04:45.22Z</time></trkpt><trkpt lat="39.8187195" lon="-0.2661102"><ele>377.2857142857143</ele><time>2026-04-16T17:04:50.097Z</time></trkpt><trkpt lat="39.8187932" lon="-0.2660833"><ele>374.0</ele><time>2026-04-16T17:04:55.173Z</time></trkpt><trkpt lat="39.8188562" lon="-0.266058"><ele>374.0</ele><time>2026-04-16T17:04:59.218Z</time></trkpt><trkpt lat="39.8189353" lon="-0.2660591"><ele>374.0</ele><time>2026-04-16T17:05:04.138Z</time></trkpt><trkpt lat="39.8190069" lon="-0.2660537"><ele>374.0</ele><time>2026-04-16T17:05:09.203Z</time></trkpt><trkpt lat="39.8190777" lon="-0.2660711"><ele>374.0</ele><time>2026-04-16T17:05:14.257Z</time></trkpt><trkpt lat="39.8191512" lon="-0.2660701"><ele>374.0</ele><time>2026-04-16T17:05:20.176Z</time></trkpt><trkpt lat="39.8192196" lon="-0.2660514"><ele>374.0</ele><time>2026-04-16T17:05:26.199Z</time></trkpt><trkpt lat="39.819292" lon="-0.2660617"><ele>374.0</ele><time>2026-04-16T17:05:31.197Z</time></trkpt><trkpt lat="39.8193585" lon="-0.2660643"><ele>373.57142857142856</ele><time>2026-04-16T17:05:36.178Z</time></trkpt><trkpt lat="39.8194273" lon="-0.266064"><ele>373.14285714285717</ele><time>2026-04-16T17:05:41.118Z</time></trkpt><trkpt lat="39.8194942" lon="-0.2660561"><ele>372.7142857142857</ele><time>2026-04-16T17:05:46.182Z</time></trkpt><trkpt lat="39.8195636" lon="-0.2660308"><ele>372.2857142857143</ele><time>2026-04-16T17:05:51.231Z</time></trkpt><trkpt lat="39.8196404" lon="-0.2660148"><ele>371.8571428571429</ele><time>2026-04-16T17:05:56.173Z</time></trkpt><trkpt lat="39.819703" lon="-0.2660035"><ele>371.42857142857144</ele><time>2026-04-16T17:06:00.227Z</time></trkpt><trkpt lat="39.8197739" lon="-0.2659805"><ele>371.0</ele><time>2026-04-16T17:06:06.173Z</time></trkpt><trkpt lat="39.8198427" lon="-0.2659701"><ele>371.0</ele><time>2026-04-16T17:06:13.237Z</time></trkpt><trkpt lat="39.8199115" lon="-0.2659487"><ele>371.0</ele><time>2026-04-16T17:06:22.173Z</time></trkpt><trkpt lat="39.8199769" lon="-0.265933"><ele>371.0</ele><time>2026-04-16T17:06:28.209Z</time></trkpt><trkpt lat="39.8200449" lon="-0.2659423"><ele>371.0</ele><time>2026-04-16T17:06:35.118Z</time></trkpt><trkpt lat="39.8201091" lon="-0.2659242"><ele>371.0</ele><time>2026-04-16T17:06:41.087Z</time></trkpt><trkpt lat="39.8201786" lon="-0.265906"><ele>371.0</ele><time>2026-04-16T17:06:48.079Z</time></trkpt><trkpt lat="39.820244" lon="-0.265896"><ele>371.0</ele><time>2026-04-16T17:06:52.979Z</time></trkpt><trkpt lat="39.8203076" lon="-0.2658849"><ele>372.7142857142857</ele><time>2026-04-16T17:06:57.18Z</time></trkpt><trkpt lat="39.8203735" lon="-0.2658905"><ele>374.42857142857144</ele><time>2026-04-16T17:07:01.24Z</time></trkpt><trkpt lat="39.820443" lon="-0.2658836"><ele>376.1428571428571</ele><time>2026-04-16T17:07:06.178Z</time></trkpt><trkpt lat="39.8205006" lon="-0.2658363"><ele>377.8571428571429</ele><time>2026-04-16T17:07:11.226Z</time></trkpt><trkpt lat="39.8205386" lon="-0.2657682"><ele>379.57142857142856</ele><time>2026-04-16T17:07:15.258Z</time></trkpt><trkpt lat="39.8205445" lon="-0.2656681"><ele>381.2857142857143</ele><time>2026-04-16T17:07:20.224Z</time></trkpt><trkpt lat="39.8205467" lon="-0.265586"><ele>383.0</ele><time>2026-04-16T17:07:24.174Z</time></trkpt><trkpt lat="39.8205543" lon="-0.2654947"><ele>383.0</ele><time>2026-04-16T17:07:29.222Z</time></trkpt><trkpt lat="39.8205585" lon="-0.2654111"><ele>383.0</ele><time>2026-04-16T17:07:34.173Z</time></trkpt><trkpt lat="39.8205777" lon="-0.2653273"><ele>383.0</ele><time>2026-04-16T17:07:47.219Z</time></trkpt><trkpt lat="39.8205776" lon="-0.2652247"><ele>383.0</ele><time>2026-04-16T17:07:52.173Z</time></trkpt><trkpt lat="39.8205675" lon="-0.2651338"><ele>383.0</ele><time>2026-04-16T17:07:57.202Z</time></trkpt><trkpt lat="39.8205526" lon="-0.2650462"><ele>383.0</ele><time>2026-04-16T17:08:02.174Z</time></trkpt><trkpt lat="39.8205384" lon="-0.2649578"><ele>383.0</ele><time>2026-04-16T17:08:07.12Z</time></trkpt><trkpt lat="39.8205069" lon="-0.264864"><ele>383.0</ele><time>2026-04-16T17:08:12.236Z</time></trkpt><trkpt lat="39.8204824" lon="-0.2647823"><ele>383.0</ele><time>2026-04-16T17:08:16.185Z</time></trkpt><trkpt lat="39.8204704" lon="-0.2646917"><ele>383.0</ele><time>2026-04-16T17:08:21.199Z</time></trkpt><trkpt lat="39.8204697" lon="-0.2645949"><ele>383.0</ele><time>2026-04-16T17:08:26.174Z</time></trkpt><trkpt lat="39.8204853" lon="-0.2645109"><ele>383.0</ele><time>2026-04-16T17:08:31.218Z</time></trkpt><trkpt lat="39.820545" lon="-0.2644556"><ele>383.0</ele><time>2026-04-16T17:08:37.252Z</time></trkpt><trkpt lat="39.8205934" lon="-0.2643905"><ele>383.0</ele><time>2026-04-16T17:08:43.12Z</time></trkpt><trkpt lat="39.8206295" lon="-0.2643163"><ele>383.2857142857143</ele><time>2026-04-16T17:08:49.213Z</time></trkpt><trkpt lat="39.8206741" lon="-0.2642443"><ele>383.57142857142856</ele><time>2026-04-16T17:08:55.219Z</time></trkpt><trkpt lat="39.8206959" lon="-0.2641429"><ele>383.8571428571429</ele><time>2026-04-16T17:08:59.196Z</time></trkpt><trkpt lat="39.820677" lon="-0.2640582"><ele>384.1428571428571</ele><time>2026-04-16T17:09:04.244Z</time></trkpt><trkpt lat="39.8206864" lon="-0.2639669"><ele>384.42857142857144</ele><time>2026-04-16T17:09:09.181Z</time></trkpt><trkpt lat="39.8206691" lon="-0.2638745"><ele>384.7142857142857</ele><time>2026-04-16T17:09:14.228Z</time></trkpt><trkpt lat="39.8206263" lon="-0.2638028"><ele>385.0</ele><time>2026-04-16T17:09:18.22Z</time></trkpt><trkpt lat="39.8205626" lon="-0.2637436"><ele>385.0</ele><time>2026-04-16T17:09:22.161Z</time></trkpt><trkpt lat="39.8205032" lon="-0.2637103"><ele>385.0</ele><time>2026-04-16T17:09:25.118Z</time></trkpt><trkpt lat="39.8204449" lon="-0.2636729"><ele>385.0</ele><time>2026-04-16T17:09:28.173Z</time></trkpt><trkpt lat="39.8203815" lon="-0.2636181"><ele>385.0</ele><time>2026-04-16T17:09:32.222Z</time></trkpt><trkpt lat="39.820327" lon="-0.2635681"><ele>385.0</ele><time>2026-04-16T17:09:36.174Z</time></trkpt><trkpt lat="39.8202703" lon="-0.263529"><ele>385.0</ele><time>2026-04-16T17:09:41.176Z</time></trkpt><trkpt lat="39.8202155" lon="-0.263482"><ele>385.0</ele><time>2026-04-16T17:09:46.059Z</time></trkpt><trkpt lat="39.8201556" lon="-0.2634226"><ele>383.7142857142857</ele><time>2026-04-16T17:09:51.819Z</time></trkpt><trkpt lat="39.8200944" lon="-0.2633759"><ele>382.42857142857144</ele><time>2026-04-16T17:09:57.08Z</time></trkpt><trkpt lat="39.8200318" lon="-0.2633154"><ele>381.1428571428571</ele><time>2026-04-16T17:10:02.174Z</time></trkpt><trkpt lat="39.8199735" lon="-0.2632716"><ele>379.8571428571429</ele><time>2026-04-16T17:10:06.158Z</time></trkpt><trkpt lat="39.8199042" lon="-0.263226"><ele>378.57142857142856</ele><time>2026-04-16T17:10:10.155Z</time></trkpt><trkpt lat="39.8198406" lon="-0.2631758"><ele>377.2857142857143</ele><time>2026-04-16T17:10:13.173Z</time></trkpt><trkpt lat="39.819848" lon="-0.2630809"><ele>376.0</ele><time>2026-04-16T17:10:17.205Z</time></trkpt><trkpt lat="39.8198033" lon="-0.2630145"><ele>376.0</ele><time>2026-04-16T17:10:22.252Z</time></trkpt><trkpt lat="39.8197374" lon="-0.2629489"><ele>376.0</ele><time>2026-04-16T17:10:26.202Z</time></trkpt><trkpt lat="39.8196728" lon="-0.2629143"><ele>376.0</ele><time>2026-04-16T17:10:30.174Z</time></trkpt><trkpt lat="39.819614" lon="-0.2628717"><ele>376.0</ele><time>2026-04-16T17:10:34.211Z</time></trkpt><trkpt lat="39.8195556" lon="-0.2628117"><ele>376.0</ele><time>2026-04-16T17:10:39.061Z</time></trkpt><trkpt lat="39.8195039" lon="-0.2627493"><ele>376.0</ele><time>2026-04-16T17:10:43.958Z</time></trkpt><trkpt lat="39.8194577" lon="-0.2626696"><ele>376.0</ele><time>2026-04-16T17:10:49.243Z</time></trkpt><trkpt lat="39.8194063" lon="-0.2626161"><ele>376.0</ele><time>2026-04-16T17:10:53.191Z</time></trkpt><trkpt lat="39.8193525" lon="-0.2625551"><ele>376.0</ele><time>2026-04-16T17:10:58.175Z</time></trkpt><trkpt lat="39.8193114" lon="-0.2624782"><ele>376.0</ele><time>2026-04-16T17:11:03.257Z</time></trkpt><trkpt lat="39.8192655" lon="-0.2624142"><ele>376.0</ele><time>2026-04-16T17:11:08.223Z</time></trkpt><trkpt lat="39.8192034" lon="-0.2623738"><ele>376.0</ele><time>2026-04-16T17:11:13.117Z</time></trkpt><trkpt lat="39.8191435" lon="-0.2623427"><ele>376.0</ele><time>2026-04-16T17:11:17.981Z</time></trkpt><trkpt lat="39.8190845" lon="-0.262296"><ele>376.0</ele><time>2026-04-16T17:11:24.737Z</time></trkpt><trkpt lat="39.8190294" lon="-0.2622165"><ele>371.2857142857143</ele><time>2026-04-16T17:11:30.576Z</time></trkpt><trkpt lat="39.8189976" lon="-0.2621364"><ele>366.57142857142856</ele><time>2026-04-16T17:11:36.421Z</time></trkpt><trkpt lat="39.8189557" lon="-0.262065"><ele>361.8571428571429</ele><time>2026-04-16T17:11:42.041Z</time></trkpt><trkpt lat="39.8189167" lon="-0.2619912"><ele>357.1428571428571</ele><time>2026-04-16T17:11:47.881Z</time></trkpt><trkpt lat="39.8188859" lon="-0.261913"><ele>352.42857142857144</ele><time>2026-04-16T17:11:52.639Z</time></trkpt><trkpt lat="39.8188626" lon="-0.261823"><ele>347.7142857142857</ele><time>2026-04-16T17:11:57.521Z</time></trkpt><trkpt lat="39.8188686" lon="-0.2617195"><ele>343.0</ele><time>2026-04-16T17:12:02.877Z</time></trkpt><trkpt lat="39.8188894" lon="-0.2616383"><ele>343.0</ele><time>2026-04-16T17:12:07.863Z</time></trkpt><trkpt lat="39.8189312" lon="-0.2615643"><ele>343.0</ele><time>2026-04-16T17:12:12.741Z</time></trkpt><trkpt lat="39.8189794" lon="-0.2614982"><ele>343.0</ele><time>2026-04-16T17:12:17.538Z</time></trkpt><trkpt lat="39.8190405" lon="-0.2614532"><ele>343.0</ele><time>2026-04-16T17:12:22.34Z</time></trkpt><trkpt lat="39.819114" lon="-0.2614205"><ele>343.0</ele><time>2026-04-16T17:12:27.236Z</time></trkpt><trkpt lat="39.8191789" lon="-0.2614247"><ele>343.0</ele><time>2026-04-16T17:12:32.174Z</time></trkpt><trkpt lat="39.8192474" lon="-0.2614155"><ele>343.0</ele><time>2026-04-16T17:12:37.221Z</time></trkpt><trkpt lat="39.8193131" lon="-0.2614026"><ele>343.57142857142856</ele><time>2026-04-16T17:12:42.038Z</time></trkpt><trkpt lat="39.8193711" lon="-0.2613671"><ele>344.1428571428571</ele><time>2026-04-16T17:12:46.879Z</time></trkpt><trkpt lat="39.8194303" lon="-0.2613165"><ele>344.7142857142857</ele><time>2026-04-16T17:12:51.617Z</time></trkpt><trkpt lat="39.8194773" lon="-0.2612472"><ele>345.2857142857143</ele><time>2026-04-16T17:12:56.459Z</time></trkpt><trkpt lat="39.8195218" lon="-0.2611631"><ele>345.85714285714283</ele><time>2026-04-16T17:13:01.356Z</time></trkpt><trkpt lat="39.81955" lon="-0.2610717"><ele>346.42857142857144</ele><time>2026-04-16T17:13:06.118Z</time></trkpt><trkpt lat="39.8195722" lon="-0.2609933"><ele>347.0</ele><time>2026-04-16T17:13:09.938Z</time></trkpt><trkpt lat="39.8196061" lon="-0.2609218"><ele>347.0</ele><time>2026-04-16T17:13:13.758Z</time></trkpt><trkpt lat="39.8196309" lon="-0.2608342"><ele>347.0</ele><time>2026-04-16T17:13:18.6Z</time></trkpt><trkpt lat="39.8196537" lon="-0.2607499"><ele>347.0</ele><time>2026-04-16T17:13:23.397Z</time></trkpt><trkpt lat="39.8196632" lon="-0.2606606"><ele>347.0</ele><time>2026-04-16T17:13:28.2Z</time></trkpt><trkpt lat="39.8196494" lon="-0.2605567"><ele>347.0</ele><time>2026-04-16T17:13:33.057Z</time></trkpt><trkpt lat="39.8196302" lon="-0.2604648"><ele>347.0</ele><time>2026-04-16T17:13:36.898Z</time></trkpt><trkpt lat="39.8196273" lon="-0.2603718"><ele>347.0</ele><time>2026-04-16T17:13:40.757Z</time></trkpt><trkpt lat="39.8196286" lon="-0.260278"><ele>345.14285714285717</ele><time>2026-04-16T17:13:45.48Z</time></trkpt><trkpt lat="39.8196069" lon="-0.2601824"><ele>343.2857142857143</ele><time>2026-04-16T17:13:51.251Z</time></trkpt><trkpt lat="39.8195769" lon="-0.2600919"><ele>341.42857142857144</ele><time>2026-04-16T17:13:56.061Z</time></trkpt><trkpt lat="39.8195601" lon="-0.2600118"><ele>339.57142857142856</ele><time>2026-04-16T17:13:59.96Z</time></trkpt><trkpt lat="39.8195515" lon="-0.2599259"><ele>337.7142857142857</ele><time>2026-04-16T17:14:03.8Z</time></trkpt><trkpt lat="39.8195424" lon="-0.2598407"><ele>335.85714285714283</ele><time>2026-04-16T17:14:07.641Z</time></trkpt><trkpt lat="39.8195278" lon="-0.2597447"><ele>334.0</ele><time>2026-04-16T17:14:12.418Z</time></trkpt><trkpt lat="39.8195163" lon="-0.2596465"><ele>332.0</ele><time>2026-04-16T17:14:17.179Z</time></trkpt><trkpt lat="39.819488" lon="-0.2595563"><ele>330.0</ele><time>2026-04-16T17:14:22.189Z</time></trkpt><trkpt lat="39.8194762" lon="-0.2594668"><ele>328.0</ele><time>2026-04-16T17:14:27.235Z</time></trkpt><trkpt lat="39.8194715" lon="-0.2593798"><ele>326.0</ele><time>2026-04-16T17:14:31.184Z</time></trkpt><trkpt lat="39.8194489" lon="-0.2592911"><ele>324.0</ele><time>2026-04-16T17:14:35.138Z</time></trkpt><trkpt lat="39.8194282" lon="-0.2592006"><ele>322.0</ele><time>2026-04-16T17:14:40.039Z</time></trkpt><trkpt lat="39.8194107" lon="-0.2591203"><ele>320.0</ele><time>2026-04-16T17:14:44.173Z</time></trkpt><trkpt lat="39.8193897" lon="-0.2590299"><ele>317.0</ele><time>2026-04-16T17:14:48.189Z</time></trkpt><trkpt lat="39.8193859" lon="-0.2589374"><ele>314.0</ele><time>2026-04-16T17:14:53.235Z</time></trkpt><trkpt lat="39.8193872" lon="-0.2588477"><ele>311.0</ele><time>2026-04-16T17:14:57.185Z</time></trkpt><trkpt lat="39.8194185" lon="-0.2587577"><ele>308.0</ele><time>2026-04-16T17:15:01.163Z</time></trkpt><trkpt lat="39.819431" lon="-0.258677"><ele>305.0</ele><time>2026-04-16T17:15:05.096Z</time></trkpt><trkpt lat="39.8194279" lon="-0.2585842"><ele>302.0</ele><time>2026-04-16T17:15:09.958Z</time></trkpt><trkpt lat="39.8194131" lon="-0.2584954"><ele>299.0</ele><time>2026-04-16T17:15:15.177Z</time></trkpt><trkpt lat="39.8194073" lon="-0.2583787"><ele>299.0</ele><time>2026-04-16T17:15:21.996Z</time></trkpt><trkpt lat="39.8193616" lon="-0.2583022"><ele>299.0</ele><time>2026-04-16T17:15:52.119Z</time></trkpt><trkpt lat="39.8193414" lon="-0.2582178"><ele>299.0</ele><time>2026-04-16T17:15:56.322Z</time></trkpt><trkpt lat="39.819308" lon="-0.2581339"><ele>299.0</ele><time>2026-04-16T17:16:00.937Z</time></trkpt><trkpt lat="39.8192588" lon="-0.25808"><ele>299.0</ele><time>2026-04-16T17:16:05.209Z</time></trkpt><trkpt lat="39.8192067" lon="-0.2580052"><ele>299.0</ele><time>2026-04-16T17:16:08.173Z</time></trkpt><trkpt lat="39.8191308" lon="-0.2579335"><ele>298.2857142857143</ele><time>2026-04-16T17:16:11.214Z</time></trkpt><trkpt lat="39.8190917" lon="-0.2578654"><ele>297.57142857142856</ele><time>2026-04-16T17:16:13.097Z</time></trkpt><trkpt lat="39.8190655" lon="-0.2577676"><ele>296.8571428571429</ele><time>2026-04-16T17:16:16.081Z</time></trkpt><trkpt lat="39.8190382" lon="-0.2576842"><ele>296.1428571428571</ele><time>2026-04-16T17:16:20.241Z</time></trkpt><trkpt lat="39.819053" lon="-0.2575875"><ele>295.42857142857144</ele><time>2026-04-16T17:16:24.178Z</time></trkpt><trkpt lat="39.8191156" lon="-0.2575555"><ele>294.7142857142857</ele><time>2026-04-16T17:16:29.998Z</time></trkpt><trkpt lat="39.8191388" lon="-0.25747"><ele>294.0</ele><time>2026-04-16T17:16:34.817Z</time></trkpt><trkpt lat="39.8191374" lon="-0.2573864"><ele>294.0</ele><time>2026-04-16T17:16:42.577Z</time></trkpt><trkpt lat="39.8191309" lon="-0.257295"><ele>294.0</ele><time>2026-04-16T17:16:49.48Z</time></trkpt><trkpt lat="39.8191166" lon="-0.2572148"><ele>294.0</ele><time>2026-04-16T17:16:54.377Z</time></trkpt><trkpt lat="39.8190947" lon="-0.2571221"><ele>294.0</ele><time>2026-04-16T17:16:59.238Z</time></trkpt><trkpt lat="39.81908" lon="-0.2570399"><ele>294.0</ele><time>2026-04-16T17:17:03.14Z</time></trkpt><trkpt lat="39.8190652" lon="-0.2569478"><ele>294.0</ele><time>2026-04-16T17:17:07.978Z</time></trkpt><trkpt lat="39.819053" lon="-0.256867"><ele>294.0</ele><time>2026-04-16T17:17:12.959Z</time></trkpt><trkpt lat="39.8190102" lon="-0.2567806"><ele>292.85714285714283</ele><time>2026-04-16T17:17:17.901Z</time></trkpt><trkpt lat="39.8189454" lon="-0.2567364"><ele>291.7142857142857</ele><time>2026-04-16T17:17:22.72Z</time></trkpt><trkpt lat="39.8188763" lon="-0.2567056"><ele>290.57142857142856</ele><time>2026-04-16T17:17:27.619Z</time></trkpt><trkpt lat="39.8188228" lon="-0.2566595"><ele>289.42857142857144</ele><time>2026-04-16T17:17:32.438Z</time></trkpt><trkpt lat="39.8187813" lon="-0.2565972"><ele>288.2857142857143</ele><time>2026-04-16T17:17:37.26Z</time></trkpt><trkpt lat="39.8187355" lon="-0.25654"><ele>287.1428571428571</ele><time>2026-04-16T17:17:42.099Z</time></trkpt><trkpt lat="39.818695" lon="-0.2564588"><ele>286.0</ele><time>2026-04-16T17:17:48.841Z</time></trkpt><trkpt lat="39.8186759" lon="-0.2563724"><ele>284.71428571428567</ele><time>2026-04-16T17:17:54.66Z</time></trkpt><trkpt lat="39.818636" lon="-0.2562958"><ele>283.42857142857144</ele><time>2026-04-16T17:18:00.002Z</time></trkpt><trkpt lat="39.8186043" lon="-0.2562172"><ele>282.1428571428571</ele><time>2026-04-16T17:18:04.739Z</time></trkpt><trkpt lat="39.8185762" lon="-0.256136"><ele>280.85714285714283</ele><time>2026-04-16T17:18:09.601Z</time></trkpt><trkpt lat="39.8185499" lon="-0.2560572"><ele>279.57142857142856</ele><time>2026-04-16T17:18:13.521Z</time></trkpt><trkpt lat="39.8185225" lon="-0.2559724"><ele>278.2857142857143</ele><time>2026-04-16T17:18:18.498Z</time></trkpt><trkpt lat="39.818504" lon="-0.2558918"><ele>277.0</ele><time>2026-04-16T17:18:22.418Z</time></trkpt><trkpt lat="39.8184684" lon="-0.2558076"><ele>277.0</ele><time>2026-04-16T17:18:26.297Z</time></trkpt><trkpt lat="39.8184204" lon="-0.2557449"><ele>277.0</ele><time>2026-04-16T17:18:30.116Z</time></trkpt><trkpt lat="39.8183691" lon="-0.2556966"><ele>277.0</ele><time>2026-04-16T17:18:33.998Z</time></trkpt><trkpt lat="39.8183009" lon="-0.2556531"><ele>277.0</ele><time>2026-04-16T17:18:38.82Z</time></trkpt><trkpt lat="39.8182371" lon="-0.2556473"><ele>277.0</ele><time>2026-04-16T17:18:42.678Z</time></trkpt><trkpt lat="39.8181702" lon="-0.2556409"><ele>277.0</ele><time>2026-04-16T17:18:46.459Z</time></trkpt><trkpt lat="39.8180994" lon="-0.255621"><ele>277.0</ele><time>2026-04-16T17:18:50.319Z</time></trkpt><trkpt lat="39.8180294" lon="-0.2556425"><ele>276.2857142857143</ele><time>2026-04-16T17:19:20.173Z</time></trkpt><trkpt lat="39.8179754" lon="-0.2555976"><ele>275.57142857142856</ele><time>2026-04-16T17:19:26.206Z</time></trkpt><trkpt lat="39.8179097" lon="-0.2555466"><ele>274.85714285714283</ele><time>2026-04-16T17:19:30.174Z</time></trkpt><trkpt lat="39.8178477" lon="-0.255532"><ele>274.1428571428571</ele><time>2026-04-16T17:19:33.998Z</time></trkpt><trkpt lat="39.8177749" lon="-0.25552"><ele>273.42857142857144</ele><time>2026-04-16T17:19:40.138Z</time></trkpt><trkpt lat="39.8176944" lon="-0.2555174"><ele>272.71428571428567</ele><time>2026-04-16T17:19:44.901Z</time></trkpt><trkpt lat="39.8176326" lon="-0.2555509"><ele>272.0</ele><time>2026-04-16T17:19:48.661Z</time></trkpt><trkpt lat="39.8175702" lon="-0.2556005"><ele>272.71428571428567</ele><time>2026-04-16T17:19:52.501Z</time></trkpt><trkpt lat="39.8175067" lon="-0.2556488"><ele>273.42857142857144</ele><time>2026-04-16T17:19:56.319Z</time></trkpt><trkpt lat="39.817473" lon="-0.2557333"><ele>274.1428571428571</ele><time>2026-04-16T17:20:01.278Z</time></trkpt><trkpt lat="39.8175204" lon="-0.2557876"><ele>274.85714285714283</ele><time>2026-04-16T17:20:05.173Z</time></trkpt><trkpt lat="39.817585" lon="-0.2558291"><ele>275.57142857142856</ele><time>2026-04-16T17:20:10.158Z</time></trkpt><trkpt lat="39.8176571" lon="-0.2558402"><ele>276.2857142857143</ele><time>2026-04-16T17:20:15.246Z</time></trkpt><trkpt lat="39.8177313" lon="-0.255849"><ele>277.0</ele><time>2026-04-16T17:20:20.221Z</time></trkpt><trkpt lat="39.8177794" lon="-0.2559056"><ele>277.0</ele><time>2026-04-16T17:20:26.939Z</time></trkpt><trkpt lat="39.8178152" lon="-0.2559762"><ele>277.0</ele><time>2026-04-16T17:20:31.899Z</time></trkpt><trkpt lat="39.8178273" lon="-0.2560691"><ele>277.0</ele><time>2026-04-16T17:20:37.188Z</time></trkpt><trkpt lat="39.8178302" lon="-0.2561654"><ele>277.0</ele><time>2026-04-16T17:20:42.235Z</time></trkpt><trkpt lat="39.8178208" lon="-0.2562549"><ele>277.0</ele><time>2026-04-16T17:20:46.184Z</time></trkpt><trkpt lat="39.8178128" lon="-0.2563424"><ele>277.0</ele><time>2026-04-16T17:20:50.214Z</time></trkpt><trkpt lat="39.8177968" lon="-0.2564383"><ele>277.0</ele><time>2026-04-16T17:20:55.079Z</time></trkpt><trkpt lat="39.8177891" lon="-0.2565293"><ele>278.0</ele><time>2026-04-16T17:21:00.227Z</time></trkpt><trkpt lat="39.8177962" lon="-0.2566185"><ele>279.0</ele><time>2026-04-16T17:21:06.139Z</time></trkpt><trkpt lat="39.8177867" lon="-0.256707"><ele>280.0</ele><time>2026-04-16T17:21:10.917Z</time></trkpt><trkpt lat="39.8177827" lon="-0.2567951"><ele>281.0</ele><time>2026-04-16T17:21:15.239Z</time></trkpt><trkpt lat="39.8177898" lon="-0.2568994"><ele>282.0</ele><time>2026-04-16T17:21:19.999Z</time></trkpt><trkpt lat="39.8178026" lon="-0.2569822"><ele>283.0</ele><time>2026-04-16T17:21:23.858Z</time></trkpt><trkpt lat="39.8178332" lon="-0.2570766"><ele>284.0</ele><time>2026-04-16T17:21:28.64Z</time></trkpt><trkpt lat="39.8178604" lon="-0.2571536"><ele>284.0</ele><time>2026-04-16T17:21:32.958Z</time></trkpt><trkpt lat="39.8179047" lon="-0.2572246"><ele>284.0</ele><time>2026-04-16T17:21:37.721Z</time></trkpt><trkpt lat="39.8179481" lon="-0.2572977"><ele>284.0</ele><time>2026-04-16T17:21:42.578Z</time></trkpt><trkpt lat="39.8179897" lon="-0.2573788"><ele>284.0</ele><time>2026-04-16T17:21:47.401Z</time></trkpt><trkpt lat="39.8180335" lon="-0.2574642"><ele>284.0</ele><time>2026-04-16T17:21:52.258Z</time></trkpt><trkpt lat="39.8180614" lon="-0.2575416"><ele>284.0</ele><time>2026-04-16T17:21:57.06Z</time></trkpt><trkpt lat="39.8180966" lon="-0.2576251"><ele>284.0</ele><time>2026-04-16T17:22:01.838Z</time></trkpt><trkpt lat="39.8181347" lon="-0.2577108"><ele>282.2857142857143</ele><time>2026-04-16T17:22:06.679Z</time></trkpt><trkpt lat="39.8181623" lon="-0.2578029"><ele>280.57142857142856</ele><time>2026-04-16T17:22:11.498Z</time></trkpt><trkpt lat="39.8181653" lon="-0.2578991"><ele>278.85714285714283</ele><time>2026-04-16T17:22:16.34Z</time></trkpt><trkpt lat="39.8181626" lon="-0.2579853"><ele>277.1428571428571</ele><time>2026-04-16T17:22:21.157Z</time></trkpt><trkpt lat="39.8181813" lon="-0.2580801"><ele>275.42857142857144</ele><time>2026-04-16T17:22:26.06Z</time></trkpt><trkpt lat="39.8182021" lon="-0.258168"><ele>273.71428571428567</ele><time>2026-04-16T17:22:31.86Z</time></trkpt><trkpt lat="39.8182362" lon="-0.25824"><ele>272.0</ele><time>2026-04-16T17:22:36.717Z</time></trkpt><trkpt lat="39.8182597" lon="-0.2583261"><ele>269.99999999999994</ele><time>2026-04-16T17:22:41.559Z</time></trkpt><trkpt lat="39.8182805" lon="-0.2584102"><ele>268.0</ele><time>2026-04-16T17:22:46.402Z</time></trkpt><trkpt lat="39.8183145" lon="-0.2584909"><ele>266.0</ele><time>2026-04-16T17:22:51.238Z</time></trkpt><trkpt lat="39.8183401" lon="-0.258579"><ele>264.0</ele><time>2026-04-16T17:22:57.099Z</time></trkpt><trkpt lat="39.8183623" lon="-0.2586688"><ele>262.0</ele><time>2026-04-16T17:23:02.227Z</time></trkpt><trkpt lat="39.8183568" lon="-0.2587604"><ele>259.99999999999994</ele><time>2026-04-16T17:23:07.098Z</time></trkpt><trkpt lat="39.8182906" lon="-0.2587822"><ele>258.0</ele><time>2026-04-16T17:23:15.173Z</time></trkpt><trkpt lat="39.8182506" lon="-0.2587127"><ele>257.99999999999994</ele><time>2026-04-16T17:23:21.207Z</time></trkpt><trkpt lat="39.8181979" lon="-0.2586651"><ele>258.0</ele><time>2026-04-16T17:23:26.98Z</time></trkpt><trkpt lat="39.8181351" lon="-0.2586286"><ele>258.0</ele><time>2026-04-16T17:23:32.64Z</time></trkpt><trkpt lat="39.8180634" lon="-0.258619"><ele>258.0</ele><time>2026-04-16T17:23:37.838Z</time></trkpt><trkpt lat="39.8179896" lon="-0.2586084"><ele>258.0</ele><time>2026-04-16T17:23:42.062Z</time></trkpt><trkpt lat="39.8179306" lon="-0.2585774"><ele>257.99999999999994</ele><time>2026-04-16T17:23:46.259Z</time></trkpt><trkpt lat="39.8178552" lon="-0.2585737"><ele>258.0</ele><time>2026-04-16T17:23:50.282Z</time></trkpt><trkpt lat="39.817793" lon="-0.2585584"><ele>257.99999999999994</ele><time>2026-04-16T17:23:54.12Z</time></trkpt><trkpt lat="39.817735" lon="-0.2584958"><ele>258.0</ele><time>2026-04-16T17:23:58.876Z</time></trkpt><trkpt lat="39.8176752" lon="-0.2584593"><ele>258.0</ele><time>2026-04-16T17:24:03.679Z</time></trkpt><trkpt lat="39.8176011" lon="-0.2584314"><ele>258.0</ele><time>2026-04-16T17:24:09.439Z</time></trkpt><trkpt lat="39.8175476" lon="-0.2583861"><ele>258.0</ele><time>2026-04-16T17:24:13.719Z</time></trkpt><trkpt lat="39.8174866" lon="-0.2583317"><ele>257.99999999999994</ele><time>2026-04-16T17:24:18.959Z</time></trkpt><trkpt lat="39.8174119" lon="-0.2582948"><ele>258.0</ele><time>2026-04-16T17:24:24.26Z</time></trkpt><trkpt lat="39.8173579" lon="-0.258247"><ele>255.4285714285714</ele><time>2026-04-16T17:24:28.141Z</time></trkpt><trkpt lat="39.8172946" lon="-0.258186"><ele>252.85714285714283</ele><time>2026-04-16T17:24:32.079Z</time></trkpt><trkpt lat="39.817229" lon="-0.2581453"><ele>250.28571428571428</ele><time>2026-04-16T17:24:35.959Z</time></trkpt><trkpt lat="39.8171656" lon="-0.2581043"><ele>247.7142857142857</ele><time>2026-04-16T17:24:39.859Z</time></trkpt><trkpt lat="39.8171104" lon="-0.2580555"><ele>245.1428571428571</ele><time>2026-04-16T17:24:44.257Z</time></trkpt><trkpt lat="39.8170385" lon="-0.2580178"><ele>242.57142857142858</ele><time>2026-04-16T17:24:50.077Z</time></trkpt><trkpt lat="39.8169725" lon="-0.2579912"><ele>240.0</ele><time>2026-04-16T17:24:56.218Z</time></trkpt><trkpt lat="39.8169031" lon="-0.2580071"><ele>240.0</ele><time>2026-04-16T17:25:01.257Z</time></trkpt><trkpt lat="39.8168417" lon="-0.2580326"><ele>240.0</ele><time>2026-04-16T17:25:06.201Z</time></trkpt><trkpt lat="39.8167865" lon="-0.258078"><ele>240.0</ele><time>2026-04-16T17:25:11.248Z</time></trkpt><trkpt lat="39.8167228" lon="-0.2581254"><ele>240.0</ele><time>2026-04-16T17:25:16.258Z</time></trkpt><trkpt lat="39.8166616" lon="-0.2581517"><ele>240.0</ele><time>2026-04-16T17:25:20.138Z</time></trkpt><trkpt lat="39.8165921" lon="-0.2581848"><ele>240.0</ele><time>2026-04-16T17:25:25.181Z</time></trkpt><trkpt lat="39.8165271" lon="-0.2582038"><ele>240.0</ele><time>2026-04-16T17:25:29.242Z</time></trkpt><trkpt lat="39.8164583" lon="-0.2582012"><ele>237.71428571428572</ele><time>2026-04-16T17:25:33.19Z</time></trkpt><trkpt lat="39.8163915" lon="-0.2582103"><ele>235.42857142857142</ele><time>2026-04-16T17:25:38.163Z</time></trkpt><trkpt lat="39.81631" lon="-0.2582125"><ele>233.14285714285714</ele><time>2026-04-16T17:25:43.174Z</time></trkpt><trkpt lat="39.8162418" lon="-0.2582068"><ele>230.85714285714286</ele><time>2026-04-16T17:25:47.233Z</time></trkpt><trkpt lat="39.8161668" lon="-0.2582066"><ele>228.57142857142856</ele><time>2026-04-16T17:25:52.238Z</time></trkpt><trkpt lat="39.8161029" lon="-0.2582302"><ele>226.28571428571428</ele><time>2026-04-16T17:25:56.224Z</time></trkpt><trkpt lat="39.8160351" lon="-0.2582314"><ele>224.0</ele><time>2026-04-16T17:26:01.173Z</time></trkpt><trkpt lat="39.8159707" lon="-0.2582058"><ele>221.57142857142858</ele><time>2026-04-16T17:26:06.214Z</time></trkpt><trkpt lat="39.8159065" lon="-0.2581578"><ele>219.14285714285714</ele><time>2026-04-16T17:26:11.177Z</time></trkpt><trkpt lat="39.8158563" lon="-0.258089"><ele>216.71428571428572</ele><time>2026-04-16T17:26:16.12Z</time></trkpt><trkpt lat="39.81581" lon="-0.2580259"><ele>214.28571428571428</ele><time>2026-04-16T17:26:21.017Z</time></trkpt><trkpt lat="39.815762" lon="-0.2579561"><ele>211.85714285714286</ele><time>2026-04-16T17:26:25.9Z</time></trkpt><trkpt lat="39.8157233" lon="-0.2578844"><ele>209.42857142857144</ele><time>2026-04-16T17:26:29.858Z</time></trkpt><trkpt lat="39.8156775" lon="-0.2578071"><ele>207.0</ele><time>2026-04-16T17:26:34.84Z</time></trkpt><trkpt lat="39.8156477" lon="-0.2577302"><ele>207.00000000000003</ele><time>2026-04-16T17:26:39.737Z</time></trkpt><trkpt lat="39.8156137" lon="-0.2576504"><ele>207.0</ele><time>2026-04-16T17:26:44.619Z</time></trkpt><trkpt lat="39.8155879" lon="-0.2575706"><ele>207.0</ele><time>2026-04-16T17:26:49.496Z</time></trkpt><trkpt lat="39.8155507" lon="-0.2574996"><ele>207.0</ele><time>2026-04-16T17:26:55.92Z</time></trkpt><trkpt lat="39.8155171" lon="-0.2574058"><ele>207.0</ele><time>2026-04-16T17:26:59.203Z</time></trkpt><trkpt lat="39.8154907" lon="-0.2573232"><ele>207.00000000000003</ele><time>2026-04-16T17:27:09.1Z</time></trkpt><trkpt lat="39.8154508" lon="-0.2572409"><ele>207.0</ele><time>2026-04-16T17:27:14.255Z</time></trkpt><trkpt lat="39.8154292" lon="-0.2571615"><ele>207.42857142857144</ele><time>2026-04-16T17:27:19.173Z</time></trkpt><trkpt lat="39.8153818" lon="-0.2570954"><ele>207.85714285714286</ele><time>2026-04-16T17:27:32.227Z</time></trkpt><trkpt lat="39.815358" lon="-0.2570136"><ele>208.28571428571428</ele><time>2026-04-16T17:27:37.173Z</time></trkpt><trkpt lat="39.8153308" lon="-0.2569378"><ele>208.71428571428572</ele><time>2026-04-16T17:27:42.211Z</time></trkpt><trkpt lat="39.815306" lon="-0.2568498"><ele>209.14285714285714</ele><time>2026-04-16T17:27:47.14Z</time></trkpt><trkpt lat="39.8152703" lon="-0.2567772"><ele>209.57142857142858</ele><time>2026-04-16T17:27:52.058Z</time></trkpt><trkpt lat="39.8152219" lon="-0.2566998"><ele>210.0</ele><time>2026-04-16T17:27:57.08Z</time></trkpt><trkpt lat="39.815181" lon="-0.2566246"><ele>210.0</ele><time>2026-04-16T17:28:03.174Z</time></trkpt><trkpt lat="39.8151653" lon="-0.2565401"><ele>210.0</ele><time>2026-04-16T17:28:10.219Z</time></trkpt><trkpt lat="39.8151432" lon="-0.2564533"><ele>210.0</ele><time>2026-04-16T17:28:17.209Z</time></trkpt><trkpt lat="39.8151254" lon="-0.2563728"><ele>210.0</ele><time>2026-04-16T17:28:23.182Z</time></trkpt><trkpt lat="39.8151097" lon="-0.2562751"><ele>210.0</ele><time>2026-04-16T17:28:41.218Z</time></trkpt><trkpt lat="39.8150703" lon="-0.2562084"><ele>210.0</ele><time>2026-04-16T17:28:50.232Z</time></trkpt><trkpt lat="39.815051" lon="-0.2561149"><ele>210.0</ele><time>2026-04-16T17:28:56.079Z</time></trkpt><trkpt lat="39.81505" lon="-0.2560285"><ele>209.0</ele><time>2026-04-16T17:29:01.222Z</time></trkpt><trkpt lat="39.815088" lon="-0.2559467"><ele>208.0</ele><time>2026-04-16T17:29:06.222Z</time></trkpt><trkpt lat="39.8151216" lon="-0.2558758"><ele>207.0</ele><time>2026-04-16T17:29:11.162Z</time></trkpt><trkpt lat="39.8151459" lon="-0.2558"><ele>206.0</ele><time>2026-04-16T17:29:16.239Z</time></trkpt><trkpt lat="39.8151692" lon="-0.2557127"><ele>205.0</ele><time>2026-04-16T17:29:22.062Z</time></trkpt><trkpt lat="39.8152147" lon="-0.2556541"><ele>204.0</ele><time>2026-04-16T17:29:27.017Z</time></trkpt><trkpt lat="39.8152446" lon="-0.2555793"><ele>203.0</ele><time>2026-04-16T17:29:32.251Z</time></trkpt><trkpt lat="39.8152416" lon="-0.2554969"><ele>202.0</ele><time>2026-04-16T17:29:38.175Z</time></trkpt><trkpt lat="39.8152241" lon="-0.2554167"><ele>201.0</ele><time>2026-04-16T17:29:44.21Z</time></trkpt><trkpt lat="39.8151644" lon="-0.2553609"><ele>200.0</ele><time>2026-04-16T17:29:50.243Z</time></trkpt><trkpt lat="39.8151111" lon="-0.2553041"><ele>199.0</ele><time>2026-04-16T17:29:57.098Z</time></trkpt><trkpt lat="39.8150748" lon="-0.2552248"><ele>198.0</ele><time>2026-04-16T17:30:03.189Z</time></trkpt><trkpt lat="39.815129" lon="-0.2551764"><ele>197.0</ele><time>2026-04-16T17:30:07.249Z</time></trkpt><trkpt lat="39.8152048" lon="-0.255184"><ele>196.0</ele><time>2026-04-16T17:30:12.185Z</time></trkpt><trkpt lat="39.8152696" lon="-0.2551881"><ele>196.0</ele><time>2026-04-16T17:30:17.232Z</time></trkpt><trkpt lat="39.8153315" lon="-0.2551504"><ele>196.0</ele><time>2026-04-16T17:30:22.173Z</time></trkpt><trkpt lat="39.8153679" lon="-0.2550783"><ele>196.0</ele><time>2026-04-16T17:30:27.078Z</time></trkpt><trkpt lat="39.8153363" lon="-0.255005"><ele>196.0</ele><time>2026-04-16T17:30:42.215Z</time></trkpt><trkpt lat="39.8153024" lon="-0.2549353"><ele>196.0</ele><time>2026-04-16T17:30:46.218Z</time></trkpt><trkpt lat="39.8152718" lon="-0.2548606"><ele>196.0</ele><time>2026-04-16T17:30:50.255Z</time></trkpt><trkpt lat="39.8152055" lon="-0.2548074"><ele>196.0</ele><time>2026-04-16T17:31:00.238Z</time></trkpt><trkpt lat="39.8151536" lon="-0.2547418"><ele>193.14285714285714</ele><time>2026-04-16T17:31:05.175Z</time></trkpt><trkpt lat="39.8150986" lon="-0.254692"><ele>190.28571428571428</ele><time>2026-04-16T17:31:10.181Z</time></trkpt><trkpt lat="39.8150616" lon="-0.2546121"><ele>187.42857142857144</ele><time>2026-04-16T17:31:16.238Z</time></trkpt><trkpt lat="39.8150662" lon="-0.2545205"><ele>184.57142857142856</ele><time>2026-04-16T17:31:26.24Z</time></trkpt><trkpt lat="39.815075" lon="-0.254437"><ele>181.71428571428572</ele><time>2026-04-16T17:31:31.159Z</time></trkpt><trkpt lat="39.8150767" lon="-0.2543538"><ele>178.85714285714286</ele><time>2026-04-16T17:31:36.223Z</time></trkpt><trkpt lat="39.815072" lon="-0.2542555"><ele>176.0</ele><time>2026-04-16T17:31:42.173Z</time></trkpt><trkpt lat="39.8150502" lon="-0.2541648"><ele>176.0</ele><time>2026-04-16T17:31:47.194Z</time></trkpt><trkpt lat="39.8150286" lon="-0.2540809"><ele>176.0</ele><time>2026-04-16T17:31:52.241Z</time></trkpt><trkpt lat="39.8149978" lon="-0.2539937"><ele>176.0</ele><time>2026-04-16T17:31:58.174Z</time></trkpt><trkpt lat="39.8149945" lon="-0.2539059"><ele>176.0</ele><time>2026-04-16T17:32:03.212Z</time></trkpt><trkpt lat="39.8149972" lon="-0.2538214"><ele>176.0</ele><time>2026-04-16T17:32:08.258Z</time></trkpt><trkpt lat="39.8150136" lon="-0.2537308"><ele>176.0</ele><time>2026-04-16T17:32:14.183Z</time></trkpt><trkpt lat="39.8150214" lon="-0.2536439"><ele>176.0</ele><time>2026-04-16T17:32:19.23Z</time></trkpt><trkpt lat="39.8150419" lon="-0.2535533"><ele>176.14285714285714</ele><time>2026-04-16T17:32:24.174Z</time></trkpt><trkpt lat="39.8150523" lon="-0.2534606"><ele>176.28571428571428</ele><time>2026-04-16T17:32:29.213Z</time></trkpt><trkpt lat="39.8150731" lon="-0.2533801"><ele>176.42857142857144</ele><time>2026-04-16T17:32:34.259Z</time></trkpt><trkpt lat="39.8150543" lon="-0.2532913"><ele>176.57142857142856</ele><time>2026-04-16T17:32:39.222Z</time></trkpt><trkpt lat="39.8150849" lon="-0.2532146"><ele>176.7142857142857</ele><time>2026-04-16T17:32:44.243Z</time></trkpt><trkpt lat="39.8151218" lon="-0.2531294"><ele>176.85714285714286</ele><time>2026-04-16T17:32:50.24Z</time></trkpt><trkpt lat="39.8151645" lon="-0.2530637"><ele>177.0</ele><time>2026-04-16T17:32:55.214Z</time></trkpt><trkpt lat="39.815204" lon="-0.2529862"><ele>178.85714285714286</ele><time>2026-04-16T17:33:00.174Z</time></trkpt><trkpt lat="39.8152524" lon="-0.2529128"><ele>180.7142857142857</ele><time>2026-04-16T17:33:05.197Z</time></trkpt><trkpt lat="39.8152941" lon="-0.2528511"><ele>182.57142857142856</ele><time>2026-04-16T17:33:19.24Z</time></trkpt><trkpt lat="39.815329" lon="-0.2527632"><ele>184.42857142857144</ele><time>2026-04-16T17:33:24.177Z</time></trkpt><trkpt lat="39.8153853" lon="-0.2526958"><ele>186.28571428571428</ele><time>2026-04-16T17:33:29.223Z</time></trkpt><trkpt lat="39.8154221" lon="-0.2526147"><ele>188.14285714285714</ele><time>2026-04-16T17:33:34.078Z</time></trkpt><trkpt lat="39.8154475" lon="-0.2525253"><ele>190.0</ele><time>2026-04-16T17:33:39.179Z</time></trkpt><trkpt lat="39.8154803" lon="-0.2524548"><ele>190.0</ele><time>2026-04-16T17:33:44.254Z</time></trkpt><trkpt lat="39.8155141" lon="-0.25238"><ele>190.0</ele><time>2026-04-16T17:33:49.178Z</time></trkpt><trkpt lat="39.8155598" lon="-0.2523104"><ele>190.0</ele><time>2026-04-16T17:33:54.237Z</time></trkpt><trkpt lat="39.8156109" lon="-0.2522546"><ele>190.0</ele><time>2026-04-16T17:33:59.174Z</time></trkpt><trkpt lat="39.8156392" lon="-0.252173"><ele>190.0</ele><time>2026-04-16T17:34:04.22Z</time></trkpt><trkpt lat="39.8156809" lon="-0.2521072"><ele>190.0</ele><time>2026-04-16T17:34:09.219Z</time></trkpt><trkpt lat="39.8157208" lon="-0.2520381"><ele>190.0</ele><time>2026-04-16T17:34:14.205Z</time></trkpt><trkpt lat="39.8157323" lon="-0.2519412"><ele>189.85714285714286</ele><time>2026-04-16T17:34:19.139Z</time></trkpt><trkpt lat="39.8157079" lon="-0.2518477"><ele>189.71428571428572</ele><time>2026-04-16T17:34:24.187Z</time></trkpt><trkpt lat="39.8157098" lon="-0.2517636"><ele>189.57142857142856</ele><time>2026-04-16T17:34:29.233Z</time></trkpt><trkpt lat="39.8157279" lon="-0.2516759"><ele>189.42857142857144</ele><time>2026-04-16T17:34:35.079Z</time></trkpt><trkpt lat="39.815699" lon="-0.2515959"><ele>189.28571428571428</ele><time>2026-04-16T17:34:41.191Z</time></trkpt><trkpt lat="39.8157086" lon="-0.2515111"><ele>189.14285714285714</ele><time>2026-04-16T17:34:46.238Z</time></trkpt><trkpt lat="39.8157361" lon="-0.2514219"><ele>189.0</ele><time>2026-04-16T17:34:51.277Z</time></trkpt><trkpt lat="39.8157879" lon="-0.2513675"><ele>189.0</ele><time>2026-04-16T17:34:55.234Z</time></trkpt><trkpt lat="39.8157945" lon="-0.251268"><ele>189.0</ele><time>2026-04-16T17:35:00.161Z</time></trkpt><trkpt lat="39.8157996" lon="-0.2511702"><ele>189.0</ele><time>2026-04-16T17:35:06.206Z</time></trkpt><trkpt lat="39.8157982" lon="-0.251079"><ele>189.0</ele><time>2026-04-16T17:35:11.173Z</time></trkpt><trkpt lat="39.8158186" lon="-0.2509892"><ele>189.0</ele><time>2026-04-16T17:35:16.188Z</time></trkpt><trkpt lat="39.8158493" lon="-0.2508973"><ele>189.0</ele><time>2026-04-16T17:35:21.235Z</time></trkpt><trkpt lat="39.8158614" lon="-0.2508027"><ele>189.0</ele><time>2026-04-16T17:35:26.173Z</time></trkpt><trkpt lat="39.8158849" lon="-0.250725"><ele>189.0</ele><time>2026-04-16T17:35:30.231Z</time></trkpt><trkpt lat="39.8159086" lon="-0.2506309"><ele>189.0</ele><time>2026-04-16T17:35:35.173Z</time></trkpt><trkpt lat="39.8159145" lon="-0.2505401"><ele>189.0</ele><time>2026-04-16T17:35:40.215Z</time></trkpt><trkpt lat="39.815916" lon="-0.2504414"><ele>189.0</ele><time>2026-04-16T17:35:46.173Z</time></trkpt><trkpt lat="39.815937" lon="-0.2503477"><ele>189.0</ele><time>2026-04-16T17:35:51.119Z</time></trkpt><trkpt lat="39.8159547" lon="-0.250254"><ele>189.0</ele><time>2026-04-16T17:35:56.233Z</time></trkpt><trkpt lat="39.8159665" lon="-0.2501614"><ele>189.0</ele><time>2026-04-16T17:36:00.182Z</time></trkpt><trkpt lat="39.815964" lon="-0.2500592"><ele>188.42857142857142</ele><time>2026-04-16T17:36:03.254Z</time></trkpt><trkpt lat="39.8159652" lon="-0.2499763"><ele>187.85714285714286</ele><time>2026-04-16T17:36:06.216Z</time></trkpt><trkpt lat="39.8159771" lon="-0.2498703"><ele>187.28571428571428</ele><time>2026-04-16T17:36:11.261Z</time></trkpt><trkpt lat="39.8159818" lon="-0.2497818"><ele>186.71428571428572</ele><time>2026-04-16T17:36:16.176Z</time></trkpt><trkpt lat="39.8160166" lon="-0.2497024"><ele>186.14285714285714</ele><time>2026-04-16T17:36:22.64Z</time></trkpt><trkpt lat="39.8160281" lon="-0.2496115"><ele>185.57142857142856</ele><time>2026-04-16T17:36:29.118Z</time></trkpt><trkpt lat="39.8160236" lon="-0.2495233"><ele>185.0</ele><time>2026-04-16T17:36:37.173Z</time></trkpt><trkpt lat="39.8160698" lon="-0.2494588"><ele>187.0</ele><time>2026-04-16T17:36:42.2Z</time></trkpt><trkpt lat="39.8160926" lon="-0.2492993"><ele>189.0</ele><time>2026-04-16T17:37:04.26Z</time></trkpt><trkpt lat="39.8161631" lon="-0.2491778"><ele>191.0</ele><time>2026-04-16T17:37:17.191Z</time></trkpt><trkpt lat="39.8161884" lon="-0.2491012"><ele>193.0</ele><time>2026-04-16T17:37:23.141Z</time></trkpt><trkpt lat="39.8162079" lon="-0.249016"><ele>195.0</ele><time>2026-04-16T17:37:31.124Z</time></trkpt><trkpt lat="39.8162555" lon="-0.2489271"><ele>195.0</ele><time>2026-04-16T17:37:37.16Z</time></trkpt><trkpt lat="39.816296" lon="-0.2488627"><ele>195.0</ele><time>2026-04-16T17:37:41.218Z</time></trkpt><trkpt lat="39.8163406" lon="-0.2487936"><ele>195.0</ele><time>2026-04-16T17:37:46.173Z</time></trkpt><trkpt lat="39.8163709" lon="-0.2487084"><ele>195.0</ele><time>2026-04-16T17:37:53.236Z</time></trkpt><trkpt lat="39.8163809" lon="-0.2486015"><ele>195.0</ele><time>2026-04-16T17:37:57.234Z</time></trkpt><trkpt lat="39.8163879" lon="-0.2484957"><ele>195.0</ele><time>2026-04-16T17:38:01.183Z</time></trkpt><trkpt lat="39.8163968" lon="-0.2484129"><ele>195.0</ele><time>2026-04-16T17:38:05.242Z</time></trkpt><trkpt lat="39.8164083" lon="-0.2483276"><ele>195.0</ele><time>2026-04-16T17:38:09.14Z</time></trkpt><trkpt lat="39.8164262" lon="-0.2482441"><ele>195.0</ele><time>2026-04-16T17:38:13.164Z</time></trkpt><trkpt lat="39.8164566" lon="-0.2481515"><ele>195.0</ele><time>2026-04-16T17:38:18.187Z</time></trkpt><trkpt lat="39.8164781" lon="-0.2480551"><ele>195.0</ele><time>2026-04-16T17:38:24.151Z</time></trkpt><trkpt lat="39.8165102" lon="-0.2479811"><ele>195.0</ele><time>2026-04-16T17:38:33.187Z</time></trkpt><trkpt lat="39.8165317" lon="-0.2479026"><ele>195.0</ele><time>2026-04-16T17:38:36.107Z</time></trkpt><trkpt lat="39.8165445" lon="-0.2478212"><ele>195.0</ele><time>2026-04-16T17:38:39.144Z</time></trkpt><trkpt lat="39.8165447" lon="-0.2477183"><ele>193.57142857142856</ele><time>2026-04-16T17:38:43.187Z</time></trkpt><trkpt lat="39.8165418" lon="-0.2476335"><ele>192.14285714285714</ele><time>2026-04-16T17:38:46.226Z</time></trkpt><trkpt lat="39.8165185" lon="-0.2475571"><ele>190.71428571428572</ele><time>2026-04-16T17:38:50.224Z</time></trkpt><trkpt lat="39.8165484" lon="-0.2474708"><ele>189.28571428571428</ele><time>2026-04-16T17:38:57.212Z</time></trkpt><trkpt lat="39.8165758" lon="-0.2473929"><ele>187.85714285714286</ele><time>2026-04-16T17:39:02.267Z</time></trkpt><trkpt lat="39.8165639" lon="-0.2472941"><ele>186.42857142857142</ele><time>2026-04-16T17:39:07.216Z</time></trkpt><trkpt lat="39.8165815" lon="-0.2472075"><ele>185.0</ele><time>2026-04-16T17:39:13.23Z</time></trkpt><trkpt lat="39.8166084" lon="-0.2471262"><ele>183.85714285714283</ele><time>2026-04-16T17:39:20.104Z</time></trkpt><trkpt lat="39.8166226" lon="-0.2470407"><ele>182.71428571428572</ele><time>2026-04-16T17:39:26.174Z</time></trkpt><trkpt lat="39.8166676" lon="-0.2469581"><ele>181.57142857142856</ele><time>2026-04-16T17:39:31.221Z</time></trkpt><trkpt lat="39.8167116" lon="-0.2468905"><ele>180.42857142857142</ele><time>2026-04-16T17:39:35.173Z</time></trkpt><trkpt lat="39.8167535" lon="-0.2468129"><ele>179.28571428571428</ele><time>2026-04-16T17:39:40.216Z</time></trkpt><trkpt lat="39.8167837" lon="-0.2467409"><ele>178.14285714285714</ele><time>2026-04-16T17:39:44.228Z</time></trkpt><trkpt lat="39.8167965" lon="-0.2466538"><ele>177.0</ele><time>2026-04-16T17:39:49.244Z</time></trkpt><trkpt lat="39.816827" lon="-0.2465657"><ele>175.71428571428572</ele><time>2026-04-16T17:39:53.173Z</time></trkpt><trkpt lat="39.8168574" lon="-0.2464921"><ele>174.42857142857142</ele><time>2026-04-16T17:39:58.208Z</time></trkpt><trkpt lat="39.8168775" lon="-0.2463822"><ele>173.14285714285714</ele><time>2026-04-16T17:40:15.22Z</time></trkpt><trkpt lat="39.8168787" lon="-0.2462821"><ele>171.85714285714286</ele><time>2026-04-16T17:40:19.223Z</time></trkpt><trkpt lat="39.8168777" lon="-0.2461962"><ele>170.57142857142856</ele><time>2026-04-16T17:40:26.106Z</time></trkpt><trkpt lat="39.8168527" lon="-0.2461181"><ele>169.28571428571428</ele><time>2026-04-16T17:40:31.246Z</time></trkpt><trkpt lat="39.8168574" lon="-0.2460312"><ele>168.0</ele><time>2026-04-16T17:40:36.248Z</time></trkpt><trkpt lat="39.8168466" lon="-0.2459442"><ele>157.0</ele><time>2026-04-16T17:40:42.199Z</time></trkpt><trkpt lat="39.8168343" lon="-0.245851"><ele>157.0</ele><time>2026-04-16T17:41:38.257Z</time></trkpt><trkpt lat="39.8167956" lon="-0.2457574"><ele>176.0</ele><time>2026-04-16T17:41:42.208Z</time></trkpt><trkpt lat="39.8167783" lon="-0.245677"><ele>176.0</ele><time>2026-04-16T17:41:48.24Z</time></trkpt><trkpt lat="39.8167217" lon="-0.2456325"><ele>176.0</ele><time>2026-04-16T17:42:26.198Z</time></trkpt></trkseg></trk></gpx>